createdAt,value
2022-08-12T00:02:41.551Z,57.12
2022-08-12T00:05:23.744Z,57.85
2022-08-12T00:08:05.077Z,57.09
2022-08-12T00:10:47.853Z,56.97
2022-08-12T00:13:29.969Z,57.71
2022-08-12T00:16:12.611Z,58.42
2022-08-12T00:18:54.868Z,57.56
2022-08-12T00:21:38.672Z,57.53
2022-08-12T00:24:19.864Z,57.87
2022-08-12T00:27:02.871Z,58.61
2022-08-12T00:29:47.804Z,59.59
2022-08-12T00:32:35.890Z,58.86
2022-08-12T00:35:17.850Z,58.95
2022-08-12T00:37:59.896Z,58.61
2022-08-12T00:40:42.356Z,59.04
2022-08-12T00:43:12.188Z,59.37
2022-08-12T00:45:56.445Z,60.90
2022-08-12T00:48:20.691Z,59.03
2022-08-12T00:50:44.592Z,59.31
2022-08-12T00:53:10.852Z,59.91
2022-08-12T00:55:34.639Z,59.98
2022-08-12T00:57:58.571Z,59.66
2022-08-12T01:00:26.323Z,59.97
2022-08-12T01:03:12.449Z,60.38
2022-08-12T01:05:56.147Z,60.14
2022-08-12T01:08:37.087Z,59.90
2022-08-12T01:11:18.533Z,60.91
2022-08-12T01:13:48.508Z,60.95
2022-08-12T01:16:14.525Z,61.00
2022-08-12T01:18:41.724Z,61.35
2022-08-12T01:21:16.819Z,61.93
2022-08-12T01:24:29.532Z,60.88
2022-08-12T01:26:48.756Z,61.56
2022-08-12T01:29:17.924Z,61.28
2022-08-12T01:31:44.837Z,62.19
2022-08-12T01:34:35.907Z,61.36
2022-08-12T01:37:00.110Z,61.08
2022-08-12T01:39:29.050Z,60.94
2022-08-12T01:41:56.021Z,62.51
2022-08-12T01:44:21.546Z,65.30
2022-08-12T01:46:58.684Z,62.82
2022-08-12T01:49:45.108Z,62.64
2022-08-12T01:52:22.605Z,64.13
2022-08-12T01:54:47.183Z,64.31
2022-08-12T01:57:58.794Z,63.44
2022-08-12T02:00:14.041Z,62.84
2022-08-12T02:02:42.832Z,62.93
2022-08-12T02:05:35.610Z,63.55
2022-08-12T02:08:40.425Z,63.88
2022-08-12T02:11:18.560Z,63.53
2022-08-12T02:14:28.641Z,62.98
2022-08-12T02:17:55.819Z,63.51
2022-08-12T02:20:15.608Z,63.45
2022-08-12T02:22:44.242Z,64.60
2022-08-12T02:25:12.167Z,65.41
2022-08-12T02:27:40.783Z,65.92
2022-08-12T02:30:08.955Z,64.15
2022-08-12T02:32:40.701Z,63.99
2022-08-12T02:35:05.105Z,67.79
2022-08-12T02:37:30.944Z,66.07
2022-08-12T02:39:57.993Z,65.73
2022-08-12T02:42:24.008Z,65.47
2022-08-12T02:44:52.857Z,65.79
2022-08-12T02:47:59.038Z,64.17
2022-08-12T02:50:09.103Z,64.37
2022-08-12T02:52:34.688Z,64.52
2022-08-12T02:55:12.868Z,64.70
2022-08-12T02:57:53.464Z,65.98
2022-08-12T03:00:18.995Z,65.76
2022-08-12T03:02:47.860Z,65.51
2022-08-12T03:05:15.405Z,64.84
2022-08-12T03:07:59.839Z,64.86
2022-08-12T03:10:36.592Z,65.13
2022-08-12T03:13:04.055Z,65.30
2022-08-12T03:15:28.964Z,64.98
2022-08-12T03:18:25.536Z,65.54
2022-08-12T03:20:43.241Z,67.44
2022-08-12T03:23:09.031Z,67.75
2022-08-12T03:25:38.659Z,66.88
2022-08-12T03:28:03.343Z,65.96
2022-08-12T03:30:31.456Z,65.50
2022-08-12T03:32:59.201Z,65.85
2022-08-12T03:35:40.657Z,68.01
2022-08-12T03:38:09.627Z,67.92
2022-08-12T03:40:59.800Z,68.59
2022-08-12T03:43:47.559Z,67.53
2022-08-12T03:46:39.007Z,66.97
2022-08-12T03:49:22.152Z,70.21
2022-08-12T03:52:04.093Z,67.68
2022-08-12T03:54:45.352Z,68.78
2022-08-12T03:57:26.788Z,70.47
2022-08-12T04:00:07.686Z,69.01
2022-08-12T04:02:34.661Z,74.41
2022-08-12T04:04:59.987Z,76.22
2022-08-12T04:07:24.448Z,76.07
2022-08-12T04:09:48.681Z,78.05
2022-08-12T04:12:39.496Z,74.42
2022-08-12T04:15:04.023Z,70.25
2022-08-12T04:17:28.954Z,69.92
2022-08-12T04:19:53.493Z,70.18
2022-08-12T04:22:18.883Z,70.41
2022-08-12T04:24:50.378Z,69.23
2022-08-12T04:27:14.491Z,69.04
2022-08-12T04:30:30.487Z,70.59
2022-08-12T04:32:22.997Z,70.55
2022-08-12T04:34:47.080Z,68.94
2022-08-12T04:37:12.223Z,69.49
2022-08-12T04:39:39.509Z,71.27
2022-08-12T04:42:03.373Z,70.17
2022-08-12T04:44:27.503Z,69.35
2022-08-12T04:46:51.276Z,69.07
2022-08-12T04:49:15.012Z,70.53
2022-08-12T04:51:38.912Z,68.27
2022-08-12T04:54:03.636Z,69.45
2022-08-12T04:56:29.543Z,68.32
2022-08-12T04:59:00.574Z,70.30
2022-08-12T05:01:27.999Z,68.61
2022-08-12T05:03:53.276Z,70.00
2022-08-12T05:06:26.277Z,69.01
2022-08-12T05:08:52.305Z,69.30
2022-08-12T05:11:16.260Z,69.13
2022-08-12T05:13:42.745Z,68.52
2022-08-12T05:16:09.299Z,67.78
2022-08-12T05:18:33.884Z,69.21
2022-08-12T05:21:02.223Z,69.91
2022-08-12T05:23:25.979Z,67.58
2022-08-12T05:25:56.319Z,66.92
2022-08-12T05:28:20.413Z,66.80
2022-08-12T05:30:46.880Z,67.30
2022-08-12T05:33:11.801Z,66.18
2022-08-12T05:35:40.115Z,64.98
2022-08-12T05:38:17.804Z,64.00
2022-08-12T05:40:42.248Z,64.48
2022-08-12T05:43:06.555Z,63.27
2022-08-12T05:45:30.372Z,64.28
2022-08-12T05:47:55.588Z,62.60
2022-08-12T05:50:19.792Z,63.73
2022-08-12T05:52:44.139Z,60.60
2022-08-12T05:55:08.933Z,59.08
2022-08-12T05:57:35.504Z,58.67
2022-08-12T05:59:59.670Z,59.28
2022-08-12T06:02:23.440Z,56.58
2022-08-12T06:04:49.631Z,57.84
2022-08-12T06:08:00.725Z,54.56
2022-08-12T06:09:58.063Z,53.98
2022-08-12T06:12:23.479Z,54.67
2022-08-12T06:14:48.284Z,52.82
2022-08-12T06:17:12.320Z,52.29
2022-08-12T06:20:28.199Z,50.42
2022-08-12T06:22:21.522Z,52.35
2022-08-12T06:24:45.282Z,49.45
2022-08-12T06:27:09.392Z,47.52
2022-08-12T06:30:07.225Z,48.45
2022-08-12T06:32:18.357Z,42.73
2022-08-12T06:35:25.025Z,46.35
2022-08-12T06:37:28.000Z,45.39
2022-08-12T06:39:51.831Z,45.41
2022-08-12T06:42:33.659Z,45.05
2022-08-12T06:44:57.436Z,40.66
2022-08-12T06:47:22.240Z,42.30
2022-08-12T06:49:46.052Z,38.87
2022-08-12T06:52:09.732Z,37.06
2022-08-12T06:54:35.503Z,36.76
2022-08-12T06:57:04.249Z,42.56
2022-08-12T06:59:29.356Z,34.76
2022-08-12T07:01:53.703Z,38.86
2022-08-12T07:04:35.843Z,36.53
2022-08-12T07:07:01.167Z,35.83
2022-08-12T07:10:04.089Z,34.83
2022-08-12T07:12:19.862Z,35.09
2022-08-12T07:14:48.411Z,39.60
2022-08-12T07:17:13.141Z,36.17
2022-08-12T07:19:45.240Z,37.68
2022-08-12T07:22:10.937Z,36.28
2022-08-12T07:24:34.775Z,36.01
2022-08-12T07:26:58.586Z,34.97
2022-08-12T07:29:25.514Z,37.40
2022-08-12T07:32:09.447Z,35.81
2022-08-12T07:34:33.410Z,36.59
2022-08-12T07:36:57.191Z,34.19
2022-08-12T07:39:21.372Z,33.66
2022-08-12T07:41:45.257Z,34.62
2022-08-12T07:44:12.663Z,34.60
2022-08-12T07:46:40.769Z,33.57
2022-08-12T07:49:08.440Z,34.39
2022-08-12T07:51:33.108Z,34.84
2022-08-12T07:54:02.978Z,35.34
2022-08-12T07:56:28.390Z,35.18
2022-08-12T07:58:53.858Z,34.69
2022-08-12T08:01:22.887Z,34.98
2022-08-12T08:04:05.431Z,35.62
2022-08-12T08:06:31.330Z,34.87
2022-08-12T08:08:56.588Z,35.81
2022-08-12T08:11:37.744Z,35.52
2022-08-12T08:14:04.429Z,35.26
2022-08-12T08:16:28.179Z,34.49
2022-08-12T08:18:55.811Z,35.64
2022-08-12T08:21:22.063Z,35.05
2022-08-12T08:24:05.276Z,34.87
2022-08-12T08:26:29.264Z,33.95
2022-08-12T08:29:01.774Z,34.51
2022-08-12T08:31:28.056Z,33.36
2022-08-12T08:34:04.157Z,33.59
2022-08-12T08:36:40.322Z,33.82
2022-08-12T08:39:06.117Z,33.63
2022-08-12T08:42:16.578Z,35.21
2022-08-12T08:44:31.758Z,34.37
2022-08-12T08:46:55.808Z,34.80
2022-08-12T08:49:23.008Z,34.04
2022-08-12T08:51:47.123Z,33.48
2022-08-12T08:54:11.589Z,32.86
2022-08-12T08:56:42.720Z,33.19
2022-08-12T08:59:06.504Z,32.42
2022-08-12T09:01:37.570Z,32.97
2022-08-12T09:05:07.833Z,34.28
2022-08-12T09:06:53.627Z,32.46
2022-08-12T09:09:19.582Z,33.03
2022-08-12T09:12:10.651Z,33.34
2022-08-12T09:14:36.016Z,31.32
2022-08-12T09:16:59.847Z,31.88
2022-08-12T09:19:27.735Z,31.52
2022-08-12T09:21:54.890Z,31.34
2022-08-12T09:24:19.953Z,31.33
2022-08-12T09:26:46.387Z,31.10
2022-08-12T09:29:12.469Z,31.28
2022-08-12T09:32:03.970Z,31.28
2022-08-12T09:34:29.400Z,30.61
2022-08-12T09:37:02.422Z,30.93
2022-08-12T09:40:06.399Z,30.08
2022-08-12T09:42:39.128Z,30.75
2022-08-12T09:45:23.389Z,32.58
2022-08-12T09:47:57.066Z,31.27
2022-08-12T09:50:23.971Z,29.96
2022-08-12T09:53:05.836Z,30.37
2022-08-12T09:56:06.918Z,28.56
2022-08-12T09:58:57.654Z,28.83
2022-08-12T10:01:06.533Z,28.76
2022-08-12T10:04:03.534Z,28.27
2022-08-12T10:06:32.419Z,28.72
2022-08-12T10:09:01.393Z,28.59
2022-08-12T10:12:10.101Z,29.67
2022-08-12T10:14:34.214Z,27.15
2022-08-12T10:16:59.929Z,27.37
2022-08-12T10:19:36.304Z,26.08
2022-08-12T10:22:01.665Z,26.17
2022-08-12T10:24:26.825Z,24.92
2022-08-12T10:27:08.468Z,25.82
2022-08-12T10:30:37.671Z,25.29
2022-08-12T10:32:44.747Z,28.90
2022-08-12T10:35:09.790Z,25.95
2022-08-12T10:38:34.060Z,24.62
2022-08-12T10:40:28.621Z,24.23
2022-08-12T10:43:16.959Z,24.85
2022-08-12T10:45:42.629Z,24.25
2022-08-12T10:48:21.295Z,24.89
2022-08-12T10:50:58.410Z,25.13
2022-08-12T10:53:44.164Z,25.75
2022-08-12T10:56:11.900Z,25.24
2022-08-12T10:58:37.915Z,24.35
2022-08-12T11:01:50.501Z,24.48
2022-08-12T11:04:23.264Z,24.58
2022-08-12T11:07:08.081Z,23.27
2022-08-12T11:09:18.420Z,27.01
2022-08-12T11:12:57.257Z,24.99
2022-08-12T11:14:52.354Z,24.05
2022-08-12T11:17:42.828Z,23.44
2022-08-12T11:20:00.163Z,23.41
2022-08-12T11:22:26.141Z,23.52
2022-08-12T11:24:55.366Z,23.66
2022-08-12T11:27:21.409Z,22.86
2022-08-12T11:30:00.446Z,27.22
2022-08-12T11:32:29.977Z,23.71
2022-08-12T11:35:02.605Z,24.06
2022-08-12T11:37:58.430Z,24.54
2022-08-12T11:40:11.222Z,25.26
2022-08-12T11:42:39.733Z,23.67
2022-08-12T11:45:12.195Z,25.04
2022-08-12T11:47:40.806Z,22.30
2022-08-12T11:50:05.080Z,24.16
2022-08-12T11:53:02.380Z,24.89
2022-08-12T11:55:15.019Z,23.38
2022-08-12T11:58:51.133Z,23.58
2022-08-12T12:03:19.207Z,23.78
2022-08-12T12:05:46.859Z,23.62
2022-08-12T12:08:38.649Z,24.79
2022-08-12T12:10:56.147Z,24.71
2022-08-12T12:13:23.245Z,24.32
2022-08-12T12:16:07.131Z,23.54
2022-08-12T12:18:34.968Z,24.43
2022-08-12T12:21:01.555Z,23.79
2022-08-12T12:23:29.552Z,25.34
2022-08-12T12:25:59.458Z,24.75
2022-08-12T12:28:37.829Z,24.31
2022-08-12T12:31:04.389Z,24.31
2022-08-12T12:33:57.133Z,24.20
2022-08-12T12:36:24.026Z,25.33
2022-08-12T12:38:53.133Z,25.24
2022-08-12T12:41:18.625Z,24.41
2022-08-12T12:43:56.341Z,25.65
2022-08-12T12:46:27.175Z,23.91
2022-08-12T12:48:51.170Z,26.56
2022-08-12T12:51:22.124Z,24.79
2022-08-12T12:54:07.425Z,25.08
2022-08-12T12:56:34.611Z,22.75
2022-08-12T12:59:00.891Z,24.36
2022-08-12T13:01:31.110Z,24.64
2022-08-12T13:04:01.894Z,23.33
2022-08-12T13:06:30.237Z,23.02
2022-08-12T13:08:54.927Z,23.43
2022-08-12T13:11:21.254Z,22.67
2022-08-12T13:14:10.174Z,23.20
2022-08-12T13:16:43.838Z,25.32
2022-08-12T13:19:07.947Z,22.99
2022-08-12T13:21:36.642Z,24.62
2022-08-12T13:24:09.978Z,23.64
2022-08-12T13:26:35.171Z,24.76
2022-08-12T13:29:01.247Z,25.32
2022-08-12T13:31:27.152Z,24.06
2022-08-12T13:34:32.053Z,23.57
2022-08-12T13:36:37.319Z,25.54
2022-08-12T13:39:02.274Z,24.72
2022-08-12T13:41:35.851Z,24.94
2022-08-12T13:43:59.811Z,25.29
2022-08-12T13:46:25.503Z,26.29
2022-08-12T13:48:49.286Z,25.13
2022-08-12T13:51:14.483Z,24.09
2022-08-12T13:53:58.982Z,25.80
2022-08-12T13:56:24.855Z,24.79
2022-08-12T13:58:54.391Z,26.45
2022-08-12T14:01:20.599Z,26.43
2022-08-12T14:03:50.992Z,26.25
2022-08-12T14:06:18.991Z,25.55
2022-08-12T14:08:42.883Z,28.82
2022-08-12T14:11:06.932Z,26.44
2022-08-12T14:14:03.470Z,26.17
2022-08-12T14:16:47.187Z,26.41
2022-08-12T14:19:18.467Z,25.06
2022-08-12T14:21:59.218Z,24.97
2022-08-12T14:24:27.020Z,25.73
2022-08-12T14:26:51.047Z,27.44
2022-08-12T14:29:21.726Z,25.87
2022-08-12T14:31:59.409Z,24.29
2022-08-12T14:34:28.270Z,26.88
2022-08-12T14:36:53.960Z,25.34
2022-08-12T14:39:18.091Z,25.66
2022-08-12T14:41:48.168Z,25.71
2022-08-12T14:44:59.458Z,25.83
2022-08-12T14:46:57.079Z,25.44
2022-08-12T14:50:33.763Z,25.56
2022-08-12T14:53:41.273Z,25.99
2022-08-12T14:57:57.212Z,26.47
2022-08-12T15:00:53.457Z,25.77
2022-08-12T15:03:18.047Z,25.88
2022-08-12T15:06:05.542Z,26.04
2022-08-12T15:08:33.487Z,25.75
2022-08-12T15:10:59.883Z,26.89
2022-08-12T15:13:26.356Z,26.15
2022-08-12T15:15:52.744Z,26.09
2022-08-12T15:18:21.238Z,26.09
2022-08-12T15:20:46.011Z,25.48
2022-08-12T15:23:18.118Z,26.16
2022-08-12T15:25:47.844Z,25.59
2022-08-12T15:28:22.259Z,25.75
2022-08-12T15:30:46.235Z,26.48
2022-08-12T15:33:13.006Z,25.71
2022-08-12T15:35:52.010Z,27.46
2022-08-12T15:38:20.596Z,27.06
2022-08-12T15:40:51.327Z,26.32
2022-08-12T15:44:16.119Z,26.42
2022-08-12T15:46:00.375Z,26.26
2022-08-12T15:48:25.486Z,26.27
2022-08-12T15:50:55.564Z,25.75
2022-08-12T15:53:40.804Z,26.21
2022-08-12T15:56:12.703Z,25.99
2022-08-12T15:58:38.308Z,25.87
2022-08-12T16:01:04.300Z,27.20
2022-08-12T16:03:46.102Z,26.05
2022-08-12T16:06:36.346Z,25.79
2022-08-12T16:09:02.184Z,26.65
2022-08-12T16:11:27.755Z,27.24
2022-08-12T16:14:04.896Z,27.14
2022-08-12T16:16:35.503Z,26.84
2022-08-12T16:19:09.089Z,26.70
2022-08-12T16:21:50.305Z,26.56
2022-08-12T16:24:18.639Z,26.28
2022-08-12T16:26:45.219Z,27.06
2022-08-12T16:29:18.383Z,27.04
2022-08-12T16:31:42.138Z,28.79
2022-08-12T16:34:06.411Z,27.10
2022-08-12T16:36:34.733Z,28.65
2022-08-12T16:39:01.497Z,28.70
2022-08-12T16:41:28.259Z,29.35
2022-08-12T16:43:59.922Z,29.08
2022-08-12T16:46:32.166Z,29.17
2022-08-12T16:48:56.990Z,28.93
2022-08-12T16:51:20.767Z,29.76
2022-08-12T16:53:45.689Z,29.12
2022-08-12T16:56:12.356Z,30.35
2022-08-12T16:58:37.063Z,30.34
2022-08-12T17:01:02.504Z,29.88
2022-08-12T17:03:28.721Z,29.58
2022-08-12T17:05:54.968Z,29.33
2022-08-12T17:08:21.592Z,29.84
2022-08-12T17:10:54.144Z,29.60
2022-08-12T17:13:19.523Z,30.50
2022-08-12T17:15:56.769Z,30.01
2022-08-12T17:18:42.173Z,30.68
2022-08-12T17:21:10.109Z,29.69
2022-08-12T17:23:48.644Z,30.22
2022-08-12T17:26:19.488Z,30.74
2022-08-12T17:28:52.378Z,30.14
2022-08-12T17:31:18.328Z,30.59
2022-08-12T17:34:05.822Z,30.90
2022-08-12T17:36:40.331Z,30.60
2022-08-12T17:39:09.366Z,31.10
2022-08-12T17:41:56.474Z,30.41
2022-08-12T17:44:20.952Z,31.05
2022-08-12T17:46:45.807Z,30.58
2022-08-12T17:50:02.023Z,31.17
2022-08-12T17:52:07.566Z,31.39
2022-08-12T17:54:37.220Z,31.72
2022-08-12T17:57:01.277Z,31.57
2022-08-12T17:59:48.005Z,32.46
2022-08-12T18:02:13.601Z,31.91
2022-08-12T18:05:09.787Z,32.13
2022-08-12T18:07:27.940Z,32.19
2022-08-12T18:09:53.288Z,34.09
2022-08-12T18:12:35.634Z,32.24
2022-08-12T18:15:01.889Z,32.60
2022-08-12T18:17:27.416Z,33.57
2022-08-12T18:20:06.665Z,34.29
2022-08-12T18:22:33.467Z,34.66
2022-08-12T18:25:00.905Z,34.59
2022-08-12T18:27:44.472Z,35.58
2022-08-12T18:30:16.442Z,35.65
2022-08-12T18:32:58.465Z,36.63
2022-08-12T18:35:29.917Z,37.75
2022-08-12T18:38:09.240Z,38.02
2022-08-12T18:41:06.125Z,38.97
2022-08-12T18:43:30.658Z,39.38
2022-08-12T18:46:10.939Z,38.81
2022-08-12T18:48:39.793Z,40.50
2022-08-12T18:51:09.104Z,39.59
2022-08-12T18:54:07.180Z,40.85
2022-08-12T18:56:33.143Z,40.98
2022-08-12T18:59:01.400Z,40.72
2022-08-12T19:02:18.908Z,41.36
2022-08-12T19:04:12.312Z,41.17
2022-08-12T19:06:38.215Z,41.75
2022-08-12T19:09:02.216Z,42.38
2022-08-12T19:11:43.893Z,42.43
2022-08-12T19:14:28.184Z,42.40
2022-08-12T19:16:52.512Z,42.95
2022-08-12T19:19:17.359Z,43.21
2022-08-12T19:21:56.720Z,43.24
2022-08-12T19:24:40.048Z,43.30
2022-08-12T19:27:06.703Z,43.21
2022-08-12T19:29:39.552Z,43.66
2022-08-12T19:32:11.507Z,44.20
2022-08-12T19:38:02.584Z,45.09
2022-08-12T19:40:32.927Z,44.34
2022-08-12T19:43:01.527Z,44.68
2022-08-12T19:45:43.816Z,45.25
2022-08-12T19:48:17.240Z,45.48
2022-08-12T19:50:41.487Z,45.98
2022-08-12T19:53:08.198Z,46.19
2022-08-12T19:55:39.100Z,46.27
2022-08-12T19:58:04.793Z,46.56
2022-08-12T20:00:28.892Z,47.96
2022-08-12T20:03:00.704Z,47.36
2022-08-12T20:06:04.636Z,48.19
2022-08-12T20:08:13.194Z,47.88
2022-08-12T20:10:47.312Z,48.29
2022-08-12T20:13:19.283Z,48.35
2022-08-12T20:15:51.145Z,48.65
2022-08-12T20:18:53.403Z,48.98
2022-08-12T20:21:14.841Z,48.81
2022-08-12T20:24:00.521Z,48.85
2022-08-12T20:26:24.896Z,49.15
2022-08-12T20:28:50.781Z,49.29
2022-08-12T20:31:14.576Z,49.90
2022-08-12T20:33:50.755Z,49.44
2022-08-12T20:36:40.949Z,49.46
2022-08-12T20:39:51.158Z,49.63
2022-08-12T20:41:58.584Z,49.90
2022-08-12T20:44:22.374Z,49.94
2022-08-12T20:46:46.654Z,49.55
2022-08-12T20:49:17.395Z,50.09
2022-08-12T20:51:54.963Z,50.74
2022-08-12T20:54:21.503Z,51.39
2022-08-12T20:56:45.463Z,49.05
2022-08-12T20:59:14.695Z,49.71
2022-08-12T21:01:47.798Z,50.43
2022-08-12T21:04:30.776Z,51.05
2022-08-12T21:07:08.457Z,51.46
2022-08-12T21:09:40.631Z,50.19
2022-08-12T21:12:31.354Z,50.89
2022-08-12T21:14:55.499Z,50.65
2022-08-12T21:17:22.863Z,49.42
2022-08-12T21:20:11.422Z,49.71
2022-08-12T21:22:40.163Z,49.72
2022-08-12T21:25:16.866Z,51.11
2022-08-12T21:27:58.803Z,50.06
2022-08-12T21:30:27.367Z,49.64
2022-08-12T21:32:58.032Z,49.98
2022-08-12T21:35:23.397Z,49.79
2022-08-12T21:37:53.042Z,51.39
2022-08-12T21:40:18.788Z,49.86
2022-08-12T21:42:43.079Z,50.07
2022-08-12T21:45:48.335Z,50.67
2022-08-12T21:47:57.700Z,50.56
2022-08-12T21:50:21.607Z,51.53
2022-08-12T21:52:50.535Z,50.69
2022-08-12T21:55:18.515Z,50.13
2022-08-12T21:57:51.230Z,51.32
2022-08-12T22:00:19.071Z,51.70
2022-08-12T22:02:59.971Z,51.38
2022-08-12T22:05:41.423Z,51.33
2022-08-12T22:08:08.811Z,50.43
2022-08-12T22:10:32.524Z,50.70
2022-08-12T22:12:58.550Z,50.35
2022-08-12T22:15:25.091Z,51.11
2022-08-12T22:17:55.325Z,50.87
2022-08-12T22:20:21.734Z,51.41
2022-08-12T22:22:53.831Z,51.98
2022-08-12T22:25:21.847Z,53.02
2022-08-12T22:28:02.836Z,51.13
2022-08-12T22:30:45.791Z,51.96
2022-08-12T22:33:15.747Z,52.33
2022-08-12T22:35:56.000Z,52.66
2022-08-12T22:38:26.527Z,51.55
2022-08-12T22:40:53.201Z,51.02
2022-08-12T22:43:35.208Z,51.47
2022-08-12T22:46:23.404Z,51.49
2022-08-12T22:48:54.202Z,51.15
2022-08-12T22:51:19.383Z,51.40
2022-08-12T22:53:44.200Z,52.09
2022-08-12T22:56:14.339Z,53.76
2022-08-12T22:58:40.512Z,53.46
2022-08-12T23:01:06.880Z,52.21
2022-08-12T23:03:47.823Z,52.66
2022-08-12T23:06:14.204Z,51.96
2022-08-12T23:08:38.570Z,53.11
2022-08-12T23:11:06.051Z,53.11
2022-08-12T23:13:55.483Z,52.70
2022-08-12T23:16:29.079Z,52.63
2022-08-12T23:18:55.583Z,52.33
2022-08-12T23:21:23.683Z,53.61
2022-08-12T23:24:09.425Z,51.93
2022-08-12T23:26:50.380Z,52.50
2022-08-12T23:29:29.652Z,52.77
2022-08-12T23:32:04.167Z,53.33
2022-08-12T23:34:33.315Z,52.83
2022-08-12T23:36:59.587Z,52.84
2022-08-12T23:40:13.801Z,52.69
2022-08-12T23:42:17.442Z,53.09
2022-08-12T23:44:42.672Z,53.32
2022-08-12T23:47:10.033Z,53.69
2022-08-12T23:49:57.635Z,53.31
2022-08-12T23:52:19.368Z,53.63
2022-08-12T23:54:46.819Z,54.16
2022-08-12T23:57:22.283Z,54.39
2022-08-12T23:59:55.552Z,55.56
